Time,TemperatureF,DewpointF,PressureIn,WindDirection,WindDirectionDegrees,WindSpeedMPH,WindSpeedGustMPH,Humidity,HourlyPrecipIn,Conditions,Clouds,dailyrainin,SoftwareType,DateUTC
2013-04-30 00:01:00,77.0,41.0,29.68,SW,216,17.0,21.0,28,0.00,,,0.00,,2013-04-30 07:01:00,
2013-04-30 00:21:00,77.0,41.0,29.68,SW,216,17.0,21.0,28,0.00,,,0.00,,2013-04-30 07:21:00,
2013-04-30 00:31:00,77.0,41.0,29.68,SW,216,17.0,21.0,28,0.00,,,0.00,,2013-04-30 07:31:00,
2013-04-30 13:22:00,96.0,37.0,29.65,SW,224,17.0,21.0,13,0.00,,,0.00,,2013-04-30 20:22:00,
2013-04-30 13:32:00,96.0,37.0,29.65,SW,226,14.0,22.0,13,0.00,,,0.00,,2013-04-30 20:32:00,
2013-04-30 14:01:00,96.0,39.0,29.65,SW,216,20.0,25.0,14,0.00,,,0.00,,2013-04-30 21:01:00,
2013-04-30 14:11:00,96.0,41.0,29.64,WSW,246,15.0,27.0,15,0.00,,,0.00,,2013-04-30 21:11:00,
2013-04-30 14:32:00,95.0,40.0,29.64,WSW,238,22.0,30.0,15,0.00,,,0.00,,2013-04-30 21:32:00,
2013-04-30 15:02:00,94.0,41.0,29.63,SW,229,19.0,28.0,16,0.00,,,0.00,,2013-04-30 22:02:00,
2013-04-30 15:32:00,95.0,40.0,29.62,WSW,246,13.0,26.0,15,0.00,,,0.00,,2013-04-30 22:32:00,
2013-04-30 15:53:00,95.0,40.0,29.61,WSW,242,15.0,27.0,15,0.00,,,0.00,,2013-04-30 22:53:00,
2013-04-30 16:02:00,95.0,42.0,29.61,WSW,244,16.0,33.0,16,0.00,,,0.00,,2013-04-30 23:02:00,
2013-04-30 16:32:00,91.0,42.0,29.61,SW,226,23.0,33.0,18,0.00,,,0.00,,2013-04-30 23:32:00,
2013-04-30 16:52:00,90.0,42.0,29.61,SW,236,23.0,33.0,19,0.00,,,0.00,,2013-04-30 23:52:00,
2013-04-30 17:01:00,89.0,43.0,29.62,SW,230,19.0,30.0,20,0.00,,,0.00,,2013-05-01 00:01:00,
2013-04-30 17:21:00,87.0,42.0,29.61,SW,222,29.0,33.0,21,0.00,,,0.00,,2013-05-01 00:21:00,
2013-04-30 17:31:00,87.0,41.0,29.61,WSW,237,26.0,35.0,20,0.00,,,0.00,,2013-05-01 00:31:00,
2013-04-30 17:42:00,87.0,41.0,29.61,WSW,237,26.0,35.0,20,0.00,,,0.00,,2013-05-01 00:42:00,
2013-04-30 17:51:00,87.0,41.0,29.61,SW,223,26.0,33.0,20,0.00,,,0.00,,2013-05-01 00:51:00,
2013-04-30 18:01:00,87.0,42.0,29.60,SW,214,25.0,32.0,21,0.00,,,0.00,,2013-05-01 01:01:00,
2013-04-30 18:11:00,87.0,42.0,29.60,SW,214,25.0,32.0,21,0.00,,,0.00,,2013-05-01 01:11:00,
2013-04-30 18:21:00,87.0,42.0,29.60,SW,217,22.0,33.0,21,0.00,,,0.00,,2013-05-01 01:21:00,
2013-04-30 18:31:00,86.0,43.0,29.60,SSW,213,23.0,31.0,22,0.00,,,0.00,,2013-05-01 01:31:00,
2013-04-30 18:41:00,86.0,43.0,29.60,SSW,213,23.0,31.0,22,0.00,,,0.00,,2013-05-01 01:41:00,
2013-04-30 18:52:00,86.0,44.0,29.60,SW,221,17.0,26.0,23,0.00,,,0.00,,2013-05-01 01:52:00,
2013-04-30 19:01:00,85.0,42.0,29.61,SW,235,10.0,22.0,22,0.00,,,0.00,,2013-05-01 02:01:00,
2013-04-30 19:11:00,85.0,42.0,29.61,SW,235,10.0,22.0,22,0.00,,,0.00,,2013-05-01 02:11:00,
2013-04-30 19:21:00,85.0,41.0,29.61,SW,227,10.0,16.0,21,0.00,,,0.00,,2013-05-01 02:21:00,
2013-04-30 19:32:00,85.0,42.0,29.61,SW,233,11.0,16.0,22,0.00,,,0.00,,2013-05-01 02:32:00,
2013-04-30 19:42:00,85.0,42.0,29.61,SW,233,11.0,16.0,22,0.00,,,0.00,,2013-05-01 02:42:00,
2013-04-30 19:52:00,83.0,41.0,29.62,SW,216,9.0,16.0,23,0.00,,,0.00,,2013-05-01 02:52:00,
2013-04-30 20:01:00,82.0,42.0,29.62,SW,226,14.0,18.0,24,0.00,,,0.00,,2013-05-01 03:01:00,
2013-04-30 20:11:00,82.0,42.0,29.62,SW,226,14.0,18.0,24,0.00,,,0.00,,2013-05-01 03:11:00,
2013-04-30 20:21:00,81.0,42.0,29.63,SW,215,13.0,18.0,25,0.00,,,0.00,,2013-05-01 03:21:00,
2013-04-30 20:32:00,80.0,42.0,29.65,SSW,199,9.0,18.0,26,0.00,,,0.00,,2013-05-01 03:32:00,
2013-04-30 20:42:00,80.0,42.0,29.65,SSW,199,9.0,18.0,26,0.00,,,0.00,,2013-05-01 03:42:00,
2013-04-30 20:53:00,79.0,43.0,29.65,SW,215,13.0,18.0,28,0.00,,,0.00,,2013-05-01 03:53:00,
2013-04-30 21:02:00,78.0,42.0,29.66,SW,225,11.0,19.0,28,0.00,,,0.00,,2013-05-01 04:02:00,
2013-04-30 21:12:00,78.0,42.0,29.66,SW,225,11.0,19.0,28,0.00,,,0.00,,2013-05-01 04:12:00,
2013-04-30 21:22:00,78.0,43.0,29.67,SW,215,12.0,19.0,29,0.00,,,0.00,,2013-05-01 04:22:00,
2013-04-30 21:32:00,77.0,42.0,29.67,SSW,208,13.0,19.0,29,0.00,,,0.00,,2013-05-01 04:32:00,
2013-04-30 21:42:00,77.0,42.0,29.67,SSW,208,13.0,19.0,29,0.00,,,0.00,,2013-05-01 04:42:00,
2013-04-30 21:52:00,76.0,42.0,29.68,SSW,194,15.0,23.0,30,0.00,,,0.00,,2013-05-01 04:52:00,
2013-04-30 22:02:00,76.0,42.0,29.69,SSW,207,13.0,23.0,30,0.00,,,0.00,,2013-05-01 05:02:00,
2013-04-30 22:11:00,76.0,42.0,29.69,SSW,207,13.0,23.0,30,0.00,,,0.00,,2013-05-01 05:11:00,
2013-04-30 22:21:00,76.0,43.0,29.70,South,190,16.0,22.0,31,0.00,,,0.00,,2013-05-01 05:21:00,
2013-04-30 22:32:00,76.0,43.0,29.70,SSW,208,13.0,18.0,31,0.00,,,0.00,,2013-05-01 05:32:00,
2013-04-30 22:41:00,76.0,43.0,29.70,SSW,208,13.0,18.0,31,0.00,,,0.00,,2013-05-01 05:41:00,
2013-04-30 22:52:00,75.0,42.0,29.71,SSW,211,15.0,21.0,31,0.00,,,0.00,,2013-05-01 05:52:00,
2013-04-30 23:01:00,75.0,42.0,29.71,SW,217,14.0,19.0,31,0.00,,,0.00,,2013-05-01 06:01:00,
2013-04-30 23:11:00,75.0,42.0,29.71,SW,217,14.0,19.0,31,0.00,,,0.00,,2013-05-01 06:11:00,
2013-04-30 23:22:00,74.0,42.0,29.72,SW,217,13.0,19.0,32,0.00,,,0.00,,2013-05-01 06:22:00,
2013-04-30 23:32:00,74.0,42.0,29.73,SSW,213,13.0,17.0,32,0.00,,,0.00,,2013-05-01 06:32:00,
2013-04-30 23:42:00,74.0,42.0,29.73,SSW,213,13.0,17.0,32,0.00,,,0.00,,2013-05-01 06:42:00,
2013-04-30 23:52:00,74.0,42.0,29.74,SSW,199,4.0,12.0,32,0.00,,,0.00,,2013-05-01 06:52:00,